Flight Track Log - Related Links

Times and Time Zones

All times are in EDT time to prevent confusion due to time zone crossing. See the SKW6492 flight status page for this flight to view local times or setup timezone preferences in your user account.


Time Position Orientation Groundspeed Altitude Reporting Facility
EDT Latitude Longitude Course Direction KTS MPH feet Rate Location/Type
Tue 09:46:14 PM 39.8500 -104.7500 348° North 201 231 6,600  Level Denver TRACON
Tue 09:47:08 PM 39.8667 -104.8167 288° West 244 281 8,100 1,684 Climbing Denver TRACON
Tue 09:48:00 PM 40.1833 -104.7766 347° North  Level FlightAware Approximate
Tue 09:48:08 PM 39.9167 -104.9000 308° West 292 336 9,800  Level Denver TRACON
Tue 09:49:00 PM 40.2952 -104.8102 347° North  Level FlightAware Approximate
Tue 09:49:08 PM 40.0000 -104.8833 North 339 390 10,100  Level Denver TRACON
Tue 09:50:00 PM 40.4067 -104.8466 346° North  Level FlightAware Approximate
Tue 09:50:14 PM 40.1000 -104.8167 27° Northeast 335 386 11,200  Level Denver TRACON
Tue 09:51:00 PM 40.5180 -104.8837 348° North  Level FlightAware Approximate
Tue 09:51:02 PM 40.1667 -104.8167 360° North 343 395 12,800  Level Denver TRACON
Tue 09:52:08 PM 40.2833 -104.8333 354° North 367 422 14,900 1,853 Climbing Denver TRACON
Tue 09:53:18 PM 40.3944 -104.8125 North 348 400 17,000 1,591 Climbing Denver Center
Tue 09:54:20 PM 40.4939 -104.8236 355° North 362 417 18,400 1,244 Climbing Denver Center
Tue 09:55:33 PM 40.5919 -104.8350 355° North 354 407 19,800 1,200 Climbing Denver Center
Tue 09:56:35 PM 40.7211 -104.8450 357° North 381 438 21,100 968 Climbing Denver Center
Tue 09:57:37 PM 40.8133 -104.8614 352° North 371 427 21,800 780 Climbing Denver Center
Tue 09:58:38 PM 40.9394 -104.9250 339° North 402 463 22,700 829 Climbing Denver Center
Tue 09:59:40 PM 41.0489 -104.9783 340° North 410 472 23,500 780 Climbing Denver Center
Tue 10:00:41 PM 41.1528 -105.0289 340° North 415 478 24,300 787 Climbing Denver Center
Tue 10:01:42 PM 41.2586 -105.0803 340° North 420 483 25,100 829 Climbing Denver Center
Tue 10:02:44 PM 41.3825 -105.1436 339° North 427 491 26,000 439 Climbing Denver Center
Tue 10:03:45 PM 41.4892 -105.1967 340° North 427 491 26,000 146 Level Denver Center
Tue 10:04:47 PM 41.6106 -105.2850 331° Northwest 444 511 26,300 439 Climbing Denver Center
Tue 10:05:48 PM 41.7028 -105.3867 321° Northwest 447 514 26,900 672 Climbing Denver Center
Tue 10:07:01 PM 41.7928 -105.4822 322° Northwest 434 499 27,800 978 Climbing Denver Center
Tue 10:08:03 PM 41.9072 -105.6131 320° Northwest 423 487 29,100 1,113 Climbing Denver Center
Tue 10:09:05 PM 41.9911 -105.7111 319° Northwest 417 480 30,100 780 Climbing Denver Center
Tue 10:10:06 PM 42.0583 -105.7894 319° Northwest 407 468 30,700 590 Climbing Denver Center
Tue 10:11:07 PM 42.1661 -105.9186 318° Northwest 406 467 31,300 585 Climbing Denver Center
Tue 10:12:09 PM 42.2639 -106.0317 319° Northwest 414 476 31,900 341 Climbing Denver Center
Tue 10:13:10 PM 42.3492 -106.1319 319° Northwest 421 484 32,000 49 Climbing Denver Center
Tue 10:14:11 PM 42.4358 -106.2353 319° Northwest 430 495 32,000  Level Denver Center
Tue 10:15:13 PM 42.5386 -106.3586 319° Northwest 440 506 32,000  Level Denver Center
Tue 10:16:14 PM 42.6289 -106.4653 319° Northwest 447 514 32,000  Level Denver Center
Tue 10:17:16 PM 42.7194 -106.5733 319° Northwest 450 518 32,000  Level Denver Center
Tue 10:18:17 PM 42.8247 -106.7014 318° Northwest 454 522 32,000  Level Denver Center
Tue 10:19:18 PM 42.9164 -106.8103 319° Northwest 455 524 32,000  Level Denver Center
Tue 10:19:54 PM 42.9778 -106.8828 319° Northwest 457 526 32,000  Level Salt Lake Center
Tue 10:20:55 PM 43.0869 -106.9983 322° Northwest 458 527 32,000  Level Salt Lake Center
Tue 10:21:57 PM 43.1875 -107.1081 322° Northwest 463 533 32,000  Level Salt Lake Center
Tue 10:22:58 PM 43.2886 -107.2181 322° Northwest 464 534 32,000  Level Salt Lake Center
Tue 10:24:00 PM 43.3889 -107.3289 321° Northwest 462 532 32,000  Level Salt Lake Center
Tue 10:25:01 PM 43.4875 -107.4425 320° Northwest 462 532 32,000  Level Salt Lake Center
Tue 10:26:03 PM 43.5892 -107.5519 322° Northwest 464 534 32,000 -439 Level Salt Lake Center
Tue 10:27:04 PM 43.6892 -107.6619 322° Northwest 461 531 31,100 -1,659 Descending Salt Lake Center
Tue 10:28:06 PM 43.7889 -107.7733 321° Northwest 461 531 28,600 -2,341 Descending Salt Lake Center
Tue 10:29:07 PM 43.8806 -107.8764 321° Northwest 438 504 26,300 -2,293 Descending Salt Lake Center
Tue 10:30:09 PM 43.9872 -107.9961 321° Northwest 416 479 23,900 -2,146 Descending Salt Lake Center
Tue 10:31:10 PM 44.0756 -108.0956 321° Northwest 410 472 21,900 -2,000 Descending Salt Lake Center
Tue 10:32:12 PM 44.1636 -108.1972 320° Northwest 410 472 19,800 -2,098 Descending Salt Lake Center
Tue 10:33:13 PM 44.2514 -108.2989 320° Northwest 410 472 17,600 -2,115 Descending Salt Lake Center
Tue 10:34:14 PM 44.3333 -108.3931 321° Northwest 396 456 15,500 -2,146 Descending Salt Lake Center
Tue 10:35:16 PM 44.4064 -108.4769 321° Northwest 370 426 13,200 -2,049 Descending Salt Lake Center
Tue 10:36:17 PM 44.4769 -108.5572 321° Northwest 348 400 11,300 -1,659 Descending Salt Lake Center
Tue 10:37:19 PM 44.5425 -108.6331 321° Northwest 329 379 9,800 -1,220 Descending Salt Lake Center
Tue 10:38:20 PM 44.5969 -108.6944 321° Northwest 288 331 8,800 -878 Descending Salt Lake Center
Tue 10:39:22 PM 44.6431 -108.7411 324° Northwest 237 273 8,000 -634 Descending Salt Lake Center
Tue 10:40:23 PM 44.6350 -108.8200 262° West 214 246 7,500 -244 Descending Salt Lake Center
Tue 10:41:25 PM 44.6033 -108.8792 233° Southwest 199 229 7,500 -390 Level Salt Lake Center
Tue 10:42:26 PM 44.5717 -108.9361 232° Southwest 193 222 6,700 -683 Descending Salt Lake Center
Tue 10:43:28 PM 44.5472 -108.9781 231° Southwest 184 212 6,100 -581 Descending Salt Lake Center

Login

Don't have an account? Register now (free) for customized features, flight alerts, and more!